sensor_id;sensor_type;location;lat;lon;timestamp;temperature;humidity
23114;DHT22;11726;50.122;8.832;2023-11-19T00:00:07;8.50;99.90
23114;DHT22;11726;50.122;8.832;2023-11-19T00:02:41;8.50;99.90
23114;DHT22;11726;50.122;8.832;2023-11-19T00:05:09;8.50;99.90
23114;DHT22;11726;50.122;8.832;2023-11-19T00:07:39;8.60;99.90
23114;DHT22;11726;50.122;8.832;2023-11-19T00:10:10;8.60;99.90
23114;DHT22;11726;50.122;8.832;2023-11-19T00:12:39;8.50;99.90
23114;DHT22;11726;50.122;8.832;2023-11-19T00:15:06;8.50;99.90
23114;DHT22;11726;50.122;8.832;2023-11-19T00:17:38;8.60;99.90
23114;DHT22;11726;50.122;8.832;2023-11-19T00:20:07;8.60;99.90
23114;DHT22;11726;50.122;8.832;2023-11-19T00:22:34;8.60;99.90
23114;DHT22;11726;50.122;8.832;2023-11-19T00:25:01;8.60;99.90
23114;DHT22;11726;50.122;8.832;2023-11-19T00:27:28;8.70;99.90
23114;DHT22;11726;50.122;8.832;2023-11-19T00:29:55;8.70;99.90
23114;DHT22;11726;50.122;8.832;2023-11-19T00:32:22;8.60;99.90
23114;DHT22;11726;50.122;8.832;2023-11-19T00:34:48;8.60;99.90
23114;DHT22;11726;50.122;8.832;2023-11-19T00:37:16;8.60;99.90
23114;DHT22;11726;50.122;8.832;2023-11-19T00:39:44;8.70;99.90
23114;DHT22;11726;50.122;8.832;2023-11-19T00:42:11;8.70;99.90
23114;DHT22;11726;50.122;8.832;2023-11-19T00:44:37;8.70;99.90
23114;DHT22;11726;50.122;8.832;2023-11-19T00:47:04;8.70;99.90
23114;DHT22;11726;50.122;8.832;2023-11-19T00:49:31;8.70;99.90
23114;DHT22;11726;50.122;8.832;2023-11-19T00:52:01;8.70;99.90
23114;DHT22;11726;50.122;8.832;2023-11-19T00:54:28;8.70;99.90
23114;DHT22;11726;50.122;8.832;2023-11-19T00:56:55;8.70;99.90
23114;DHT22;11726;50.122;8.832;2023-11-19T00:59:22;8.80;99.90
23114;DHT22;11726;50.122;8.832;2023-11-19T01:01:48;8.80;99.90
23114;DHT22;11726;50.122;8.832;2023-11-19T01:04:15;8.80;99.90
23114;DHT22;11726;50.122;8.832;2023-11-19T01:06:42;8.80;99.90
23114;DHT22;11726;50.122;8.832;2023-11-19T01:09:11;8.80;99.90
23114;DHT22;11726;50.122;8.832;2023-11-19T01:11:38;8.80;99.90
23114;DHT22;11726;50.122;8.832;2023-11-19T01:14:05;8.80;99.90
23114;DHT22;11726;50.122;8.832;2023-11-19T01:16:32;8.80;99.90
23114;DHT22;11726;50.122;8.832;2023-11-19T01:18:59;8.80;99.90
23114;DHT22;11726;50.122;8.832;2023-11-19T01:21:43;8.90;99.90
23114;DHT22;11726;50.122;8.832;2023-11-19T01:24:10;8.90;99.90
23114;DHT22;11726;50.122;8.832;2023-11-19T01:26:38;8.90;99.90
23114;DHT22;11726;50.122;8.832;2023-11-19T01:29:05;8.90;99.90
23114;DHT22;11726;50.122;8.832;2023-11-19T01:31:33;8.90;99.90
23114;DHT22;11726;50.122;8.832;2023-11-19T01:34:00;8.90;99.90
23114;DHT22;11726;50.122;8.832;2023-11-19T01:36:27;8.90;99.90
23114;DHT22;11726;50.122;8.832;2023-11-19T01:38:54;8.90;99.90
23114;DHT22;11726;50.122;8.832;2023-11-19T01:41:21;8.90;99.90
23114;DHT22;11726;50.122;8.832;2023-11-19T01:43:47;8.90;99.90
23114;DHT22;11726;50.122;8.832;2023-11-19T01:46:14;8.90;99.90
23114;DHT22;11726;50.122;8.832;2023-11-19T01:48:44;9.00;99.90
23114;DHT22;11726;50.122;8.832;2023-11-19T01:51:12;8.90;99.90
23114;DHT22;11726;50.122;8.832;2023-11-19T01:53:40;9.00;99.90
23114;DHT22;11726;50.122;8.832;2023-11-19T01:56:08;9.00;99.90
23114;DHT22;11726;50.122;8.832;2023-11-19T01:58:36;9.00;99.90
23114;DHT22;11726;50.122;8.832;2023-11-19T02:01:05;9.00;99.90
23114;DHT22;11726;50.122;8.832;2023-11-19T02:03:32;9.10;99.90
23114;DHT22;11726;50.122;8.832;2023-11-19T02:06:00;9.10;99.90
23114;DHT22;11726;50.122;8.832;2023-11-19T02:08:27;9.20;99.90
23114;DHT22;11726;50.122;8.832;2023-11-19T02:10:53;9.10;99.90
23114;DHT22;11726;50.122;8.832;2023-11-19T02:13:25;9.10;99.90
23114;DHT22;11726;50.122;8.832;2023-11-19T02:15:52;9.10;99.90
23114;DHT22;11726;50.122;8.832;2023-11-19T02:20:50;9.20;99.90
23114;DHT22;11726;50.122;8.832;2023-11-19T02:23:18;9.20;99.90
23114;DHT22;11726;50.122;8.832;2023-11-19T02:26:13;9.30;99.90
23114;DHT22;11726;50.122;8.832;2023-11-19T02:28:41;9.30;99.90
23114;DHT22;11726;50.122;8.832;2023-11-19T02:31:10;9.40;99.90
23114;DHT22;11726;50.122;8.832;2023-11-19T02:33:40;9.40;99.90
23114;DHT22;11726;50.122;8.832;2023-11-19T02:36:07;9.40;99.90
23114;DHT22;11726;50.122;8.832;2023-11-19T02:38:35;9.30;99.90
23114;DHT22;11726;50.122;8.832;2023-11-19T02:41:06;9.40;99.90
23114;DHT22;11726;50.122;8.832;2023-11-19T02:43:33;9.50;99.90
23114;DHT22;11726;50.122;8.832;2023-11-19T02:46:04;9.40;99.90
23114;DHT22;11726;50.122;8.832;2023-11-19T02:48:37;9.40;99.90
23114;DHT22;11726;50.122;8.832;2023-11-19T02:51:05;9.50;99.90
23114;DHT22;11726;50.122;8.832;2023-11-19T02:53:36;9.40;99.90
23114;DHT22;11726;50.122;8.832;2023-11-19T02:56:06;9.40;99.90
23114;DHT22;11726;50.122;8.832;2023-11-19T02:58:38;9.50;99.90
23114;DHT22;11726;50.122;8.832;2023-11-19T03:01:05;9.50;99.90
23114;DHT22;11726;50.122;8.832;2023-11-19T03:03:50;9.50;99.90
23114;DHT22;11726;50.122;8.832;2023-11-19T03:06:21;9.50;99.90
23114;DHT22;11726;50.122;8.832;2023-11-19T03:08:51;9.50;99.90
23114;DHT22;11726;50.122;8.832;2023-11-19T03:11:17;9.50;99.90
23114;DHT22;11726;50.122;8.832;2023-11-19T03:13:44;9.60;99.90
23114;DHT22;11726;50.122;8.832;2023-11-19T03:16:11;9.60;99.90
23114;DHT22;11726;50.122;8.832;2023-11-19T03:18:38;9.70;99.90
23114;DHT22;11726;50.122;8.832;2023-11-19T03:21:08;9.70;99.90
23114;DHT22;11726;50.122;8.832;2023-11-19T03:23:35;9.70;99.90
23114;DHT22;11726;50.122;8.832;2023-11-19T03:26:03;9.60;99.90
23114;DHT22;11726;50.122;8.832;2023-11-19T03:28:31;9.60;99.90
23114;DHT22;11726;50.122;8.832;2023-11-19T03:30:58;9.70;99.90
23114;DHT22;11726;50.122;8.832;2023-11-19T03:33:25;9.70;99.90
23114;DHT22;11726;50.122;8.832;2023-11-19T03:35:56;9.70;99.90
23114;DHT22;11726;50.122;8.832;2023-11-19T03:38:23;9.70;99.90
23114;DHT22;11726;50.122;8.832;2023-11-19T03:40:51;9.80;99.90
23114;DHT22;11726;50.122;8.832;2023-11-19T03:43:17;9.80;99.90
23114;DHT22;11726;50.122;8.832;2023-11-19T03:45:46;9.80;99.90
23114;DHT22;11726;50.122;8.832;2023-11-19T03:48:13;9.80;99.90
23114;DHT22;11726;50.122;8.832;2023-11-19T03:50:43;9.80;99.90
23114;DHT22;11726;50.122;8.832;2023-11-19T03:53:11;9.70;99.90
23114;DHT22;11726;50.122;8.832;2023-11-19T03:55:38;9.70;99.90
23114;DHT22;11726;50.122;8.832;2023-11-19T03:58:04;9.70;99.90
23114;DHT22;11726;50.122;8.832;2023-11-19T04:00:32;9.70;99.90
23114;DHT22;11726;50.122;8.832;2023-11-19T04:02:58;9.70;99.90
23114;DHT22;11726;50.122;8.832;2023-11-19T04:05:25;9.70;99.90
23114;DHT22;11726;50.122;8.832;2023-11-19T04:07:52;9.70;99.90
23114;DHT22;11726;50.122;8.832;2023-11-19T04:10:18;9.80;99.90
23114;DHT22;11726;50.122;8.832;2023-11-19T04:12:45;9.80;99.90
23114;DHT22;11726;50.122;8.832;2023-11-19T04:15:13;9.70;99.90
23114;DHT22;11726;50.122;8.832;2023-11-19T04:17:40;9.70;99.90
23114;DHT22;11726;50.122;8.832;2023-11-19T04:20:07;9.80;99.90
23114;DHT22;11726;50.122;8.832;2023-11-19T04:22:38;9.80;99.90
23114;DHT22;11726;50.122;8.832;2023-11-19T04:25:05;9.80;99.90
23114;DHT22;11726;50.122;8.832;2023-11-19T04:27:32;9.80;99.90
23114;DHT22;11726;50.122;8.832;2023-11-19T04:29:59;9.80;99.90
23114;DHT22;11726;50.122;8.832;2023-11-19T04:32:27;9.80;99.90
23114;DHT22;11726;50.122;8.832;2023-11-19T04:34:54;9.80;99.90
23114;DHT22;11726;50.122;8.832;2023-11-19T04:37:21;9.80;99.90
23114;DHT22;11726;50.122;8.832;2023-11-19T04:39:47;9.80;99.90
23114;DHT22;11726;50.122;8.832;2023-11-19T04:42:14;9.80;99.90
23114;DHT22;11726;50.122;8.832;2023-11-19T04:44:43;9.80;99.90
23114;DHT22;11726;50.122;8.832;2023-11-19T04:47:10;9.80;99.90
23114;DHT22;11726;50.122;8.832;2023-11-19T04:49:40;9.90;99.90
23114;DHT22;11726;50.122;8.832;2023-11-19T04:52:09;9.90;99.90
23114;DHT22;11726;50.122;8.832;2023-11-19T04:54:36;9.90;99.90
23114;DHT22;11726;50.122;8.832;2023-11-19T04:57:06;9.90;99.90
23114;DHT22;11726;50.122;8.832;2023-11-19T04:59:34;9.90;99.90
23114;DHT22;11726;50.122;8.832;2023-11-19T05:02:01;9.90;99.90
23114;DHT22;11726;50.122;8.832;2023-11-19T05:04:27;10.00;99.90
23114;DHT22;11726;50.122;8.832;2023-11-19T05:06:54;10.00;99.90
23114;DHT22;11726;50.122;8.832;2023-11-19T05:09:21;10.00;99.90
23114;DHT22;11726;50.122;8.832;2023-11-19T05:11:47;9.90;99.90
23114;DHT22;11726;50.122;8.832;2023-11-19T05:14:18;10.00;99.90
23114;DHT22;11726;50.122;8.832;2023-11-19T05:16:48;9.90;99.90
23114;DHT22;11726;50.122;8.832;2023-11-19T05:19:15;10.00;99.90
23114;DHT22;11726;50.122;8.832;2023-11-19T05:21:43;10.10;99.90
23114;DHT22;11726;50.122;8.832;2023-11-19T05:24:10;10.10;99.90
23114;DHT22;11726;50.122;8.832;2023-11-19T05:26:38;10.20;99.90
23114;DHT22;11726;50.122;8.832;2023-11-19T05:29:05;10.10;99.90
23114;DHT22;11726;50.122;8.832;2023-11-19T05:31:31;10.10;99.90
23114;DHT22;11726;50.122;8.832;2023-11-19T05:34:02;10.10;99.90
23114;DHT22;11726;50.122;8.832;2023-11-19T05:36:29;10.10;99.90
23114;DHT22;11726;50.122;8.832;2023-11-19T05:38:56;10.10;99.90
23114;DHT22;11726;50.122;8.832;2023-11-19T05:41:22;10.10;99.90
23114;DHT22;11726;50.122;8.832;2023-11-19T05:43:49;10.00;99.90
23114;DHT22;11726;50.122;8.832;2023-11-19T05:46:16;10.10;99.90
23114;DHT22;11726;50.122;8.832;2023-11-19T05:48:46;10.10;99.90
23114;DHT22;11726;50.122;8.832;2023-11-19T05:51:13;10.10;99.90
23114;DHT22;11726;50.122;8.832;2023-11-19T05:53:42;10.10;99.90
23114;DHT22;11726;50.122;8.832;2023-11-19T05:56:09;10.10;99.90
23114;DHT22;11726;50.122;8.832;2023-11-19T05:58:36;10.10;99.90
23114;DHT22;11726;50.122;8.832;2023-11-19T06:01:04;10.10;99.90
23114;DHT22;11726;50.122;8.832;2023-11-19T06:03:31;10.20;99.90
23114;DHT22;11726;50.122;8.832;2023-11-19T06:05:58;10.10;99.90
23114;DHT22;11726;50.122;8.832;2023-11-19T06:08:25;10.20;99.90
23114;DHT22;11726;50.122;8.832;2023-11-19T06:10:53;10.20;99.90
23114;DHT22;11726;50.122;8.832;2023-11-19T06:13:20;10.20;99.90
23114;DHT22;11726;50.122;8.832;2023-11-19T06:15:50;10.20;99.90
23114;DHT22;11726;50.122;8.832;2023-11-19T06:18:17;10.30;99.90
23114;DHT22;11726;50.122;8.832;2023-11-19T06:20:46;10.40;99.90
23114;DHT22;11726;50.122;8.832;2023-11-19T06:23:13;10.40;99.90
23114;DHT22;11726;50.122;8.832;2023-11-19T06:25:40;10.40;99.90
23114;DHT22;11726;50.122;8.832;2023-11-19T06:28:06;10.30;99.90
23114;DHT22;11726;50.122;8.832;2023-11-19T06:30:33;10.40;99.90
23114;DHT22;11726;50.122;8.832;2023-11-19T06:33:00;10.40;99.90
23114;DHT22;11726;50.122;8.832;2023-11-19T06:35:27;10.40;99.90
23114;DHT22;11726;50.122;8.832;2023-11-19T06:37:55;10.50;99.90
23114;DHT22;11726;50.122;8.832;2023-11-19T06:40:22;10.40;99.90
23114;DHT22;11726;50.122;8.832;2023-11-19T06:42:49;10.40;99.90
23114;DHT22;11726;50.122;8.832;2023-11-19T06:45:15;10.40;99.90
23114;DHT22;11726;50.122;8.832;2023-11-19T06:47:42;10.40;99.90
23114;DHT22;11726;50.122;8.832;2023-11-19T06:50:09;10.60;99.90
23114;DHT22;11726;50.122;8.832;2023-11-19T06:52:36;10.60;99.90
23114;DHT22;11726;50.122;8.832;2023-11-19T06:55:04;10.50;99.90
23114;DHT22;11726;50.122;8.832;2023-11-19T06:57:35;10.60;99.90
23114;DHT22;11726;50.122;8.832;2023-11-19T07:00:02;10.50;99.90
23114;DHT22;11726;50.122;8.832;2023-11-19T07:02:29;10.60;99.90
23114;DHT22;11726;50.122;8.832;2023-11-19T07:04:56;10.70;99.90
23114;DHT22;11726;50.122;8.832;2023-11-19T07:07:22;10.80;99.90
23114;DHT22;11726;50.122;8.832;2023-11-19T07:09:49;10.80;99.90
23114;DHT22;11726;50.122;8.832;2023-11-19T07:12:16;10.80;99.90
23114;DHT22;11726;50.122;8.832;2023-11-19T07:14:43;10.80;99.90
23114;DHT22;11726;50.122;8.832;2023-11-19T07:17:10;10.80;99.90
23114;DHT22;11726;50.122;8.832;2023-11-19T07:19:37;10.80;99.90
23114;DHT22;11726;50.122;8.832;2023-11-19T07:22:04;10.70;99.90
23114;DHT22;11726;50.122;8.832;2023-11-19T07:24:32;10.70;99.90
23114;DHT22;11726;50.122;8.832;2023-11-19T07:26:59;10.70;99.90
23114;DHT22;11726;50.122;8.832;2023-11-19T07:29:26;10.80;99.90
23114;DHT22;11726;50.122;8.832;2023-11-19T07:31:55;10.80;99.90
23114;DHT22;11726;50.122;8.832;2023-11-19T07:34:24;10.80;99.90
23114;DHT22;11726;50.122;8.832;2023-11-19T07:36:51;10.90;99.90
23114;DHT22;11726;50.122;8.832;2023-11-19T07:39:17;10.80;99.90
23114;DHT22;11726;50.122;8.832;2023-11-19T07:41:44;10.80;99.90
23114;DHT22;11726;50.122;8.832;2023-11-19T07:44:11;10.80;99.90
23114;DHT22;11726;50.122;8.832;2023-11-19T07:46:38;10.80;99.90
23114;DHT22;11726;50.122;8.832;2023-11-19T07:49:04;10.90;99.90
23114;DHT22;11726;50.122;8.832;2023-11-19T07:51:31;10.90;99.90
23114;DHT22;11726;50.122;8.832;2023-11-19T07:53:58;11.00;99.90
23114;DHT22;11726;50.122;8.832;2023-11-19T07:56:24;11.00;99.90
23114;DHT22;11726;50.122;8.832;2023-11-19T07:58:51;11.10;99.90
23114;DHT22;11726;50.122;8.832;2023-11-19T08:01:19;11.00;99.90
23114;DHT22;11726;50.122;8.832;2023-11-19T08:03:45;11.10;99.90
23114;DHT22;11726;50.122;8.832;2023-11-19T08:06:15;11.10;99.90
23114;DHT22;11726;50.122;8.832;2023-11-19T08:08:42;11.10;99.90
23114;DHT22;11726;50.122;8.832;2023-11-19T08:11:09;11.10;99.90
23114;DHT22;11726;50.122;8.832;2023-11-19T08:13:36;11.10;99.90
23114;DHT22;11726;50.122;8.832;2023-11-19T08:16:03;11.10;99.90
23114;DHT22;11726;50.122;8.832;2023-11-19T08:18:29;11.10;99.90
23114;DHT22;11726;50.122;8.832;2023-11-19T08:20:56;11.10;99.90
23114;DHT22;11726;50.122;8.832;2023-11-19T08:23:24;11.10;99.90
23114;DHT22;11726;50.122;8.832;2023-11-19T08:25:52;11.20;99.90
23114;DHT22;11726;50.122;8.832;2023-11-19T08:28:19;11.20;99.90
23114;DHT22;11726;50.122;8.832;2023-11-19T08:30:46;11.30;99.90
23114;DHT22;11726;50.122;8.832;2023-11-19T08:33:12;11.30;99.90
23114;DHT22;11726;50.122;8.832;2023-11-19T08:35:39;11.30;99.90
23114;DHT22;11726;50.122;8.832;2023-11-19T08:38:06;11.40;99.90
23114;DHT22;11726;50.122;8.832;2023-11-19T08:40:33;11.40;99.90
23114;DHT22;11726;50.122;8.832;2023-11-19T08:43:00;11.30;99.90
23114;DHT22;11726;50.122;8.832;2023-11-19T08:45:27;11.40;99.90
23114;DHT22;11726;50.122;8.832;2023-11-19T08:47:53;11.30;99.90
23114;DHT22;11726;50.122;8.832;2023-11-19T08:50:20;11.30;99.90
23114;DHT22;11726;50.122;8.832;2023-11-19T08:52:47;11.30;99.90
23114;DHT22;11726;50.122;8.832;2023-11-19T08:55:13;11.40;99.90
23114;DHT22;11726;50.122;8.832;2023-11-19T08:57:40;11.40;99.90
23114;DHT22;11726;50.122;8.832;2023-11-19T09:00:07;11.40;99.90
23114;DHT22;11726;50.122;8.832;2023-11-19T09:02:38;11.50;99.90
23114;DHT22;11726;50.122;8.832;2023-11-19T09:05:05;11.50;99.90
23114;DHT22;11726;50.122;8.832;2023-11-19T09:07:35;11.50;99.90
23114;DHT22;11726;50.122;8.832;2023-11-19T09:10:02;11.50;99.90
23114;DHT22;11726;50.122;8.832;2023-11-19T09:12:31;11.60;99.90
23114;DHT22;11726;50.122;8.832;2023-11-19T09:14:58;11.60;99.90
23114;DHT22;11726;50.122;8.832;2023-11-19T09:17:24;11.60;99.90
23114;DHT22;11726;50.122;8.832;2023-11-19T09:19:51;11.60;99.90
23114;DHT22;11726;50.122;8.832;2023-11-19T09:22:18;11.60;99.90
23114;DHT22;11726;50.122;8.832;2023-11-19T09:24:44;11.60;99.90
23114;DHT22;11726;50.122;8.832;2023-11-19T09:27:11;11.60;99.90
23114;DHT22;11726;50.122;8.832;2023-11-19T09:29:38;11.70;99.90
23114;DHT22;11726;50.122;8.832;2023-11-19T09:32:05;11.80;99.90
23114;DHT22;11726;50.122;8.832;2023-11-19T09:34:32;11.80;99.90
23114;DHT22;11726;50.122;8.832;2023-11-19T09:36:59;11.90;99.90
23114;DHT22;11726;50.122;8.832;2023-11-19T09:39:25;12.10;99.90
23114;DHT22;11726;50.122;8.832;2023-11-19T09:41:52;12.30;99.90
23114;DHT22;11726;50.122;8.832;2023-11-19T09:44:19;12.40;99.90
23114;DHT22;11726;50.122;8.832;2023-11-19T09:46:46;12.60;99.90
23114;DHT22;11726;50.122;8.832;2023-11-19T09:49:20;12.60;99.90
23114;DHT22;11726;50.122;8.832;2023-11-19T09:52:02;12.60;99.90
23114;DHT22;11726;50.122;8.832;2023-11-19T09:54:29;12.70;99.90
23114;DHT22;11726;50.122;8.832;2023-11-19T09:56:57;12.70;99.90
23114;DHT22;11726;50.122;8.832;2023-11-19T09:59:33;12.70;99.90
23114;DHT22;11726;50.122;8.832;2023-11-19T10:02:00;12.70;99.90
23114;DHT22;11726;50.122;8.832;2023-11-19T10:04:29;12.70;99.90
23114;DHT22;11726;50.122;8.832;2023-11-19T10:06:57;12.80;99.90
23114;DHT22;11726;50.122;8.832;2023-11-19T10:09:23;12.90;99.90
23114;DHT22;11726;50.122;8.832;2023-11-19T10:11:50;12.90;99.90
23114;DHT22;11726;50.122;8.832;2023-11-19T10:14:20;13.00;99.90
23114;DHT22;11726;50.122;8.832;2023-11-19T10:16:49;13.10;99.90
23114;DHT22;11726;50.122;8.832;2023-11-19T10:19:19;13.20;99.90
23114;DHT22;11726;50.122;8.832;2023-11-19T10:21:47;13.20;99.90
23114;DHT22;11726;50.122;8.832;2023-11-19T10:24:14;13.20;99.90
23114;DHT22;11726;50.122;8.832;2023-11-19T10:26:57;13.30;99.90
23114;DHT22;11726;50.122;8.832;2023-11-19T10:29:24;13.40;99.90
23114;DHT22;11726;50.122;8.832;2023-11-19T10:31:57;13.50;99.90
23114;DHT22;11726;50.122;8.832;2023-11-19T10:34:44;13.50;99.90
23114;DHT22;11726;50.122;8.832;2023-11-19T10:37:30;13.50;99.90
23114;DHT22;11726;50.122;8.832;2023-11-19T10:39:59;13.50;99.90
23114;DHT22;11726;50.122;8.832;2023-11-19T10:42:25;13.50;99.90
23114;DHT22;11726;50.122;8.832;2023-11-19T10:44:52;13.70;99.90
23114;DHT22;11726;50.122;8.832;2023-11-19T10:47:19;13.70;99.90
23114;DHT22;11726;50.122;8.832;2023-11-19T10:50:04;13.90;99.90
23114;DHT22;11726;50.122;8.832;2023-11-19T10:52:31;14.00;99.90
23114;DHT22;11726;50.122;8.832;2023-11-19T10:55:00;14.10;99.90
23114;DHT22;11726;50.122;8.832;2023-11-19T10:57:30;14.20;99.90
23114;DHT22;11726;50.122;8.832;2023-11-19T11:00:01;14.30;99.90
23114;DHT22;11726;50.122;8.832;2023-11-19T11:02:30;14.30;99.90
23114;DHT22;11726;50.122;8.832;2023-11-19T11:05:01;14.40;99.90
23114;DHT22;11726;50.122;8.832;2023-11-19T11:07:29;15.00;99.90
23114;DHT22;11726;50.122;8.832;2023-11-19T11:10:07;15.50;99.90
23114;DHT22;11726;50.122;8.832;2023-11-19T11:12:40;15.70;99.90
23114;DHT22;11726;50.122;8.832;2023-11-19T11:15:11;15.20;99.90
23114;DHT22;11726;50.122;8.832;2023-11-19T11:17:41;14.90;99.90
23114;DHT22;11726;50.122;8.832;2023-11-19T11:20:09;14.90;99.90
23114;DHT22;11726;50.122;8.832;2023-11-19T11:22:54;14.70;99.90
23114;DHT22;11726;50.122;8.832;2023-11-19T11:25:40;14.70;99.90
23114;DHT22;11726;50.122;8.832;2023-11-19T11:36:29;14.40;99.90
23114;DHT22;11726;50.122;8.832;2023-11-19T11:38:58;14.40;99.90
23114;DHT22;11726;50.122;8.832;2023-11-19T11:41:27;14.50;99.90
23114;DHT22;11726;50.122;8.832;2023-11-19T11:43:56;14.40;99.90
23114;DHT22;11726;50.122;8.832;2023-11-19T11:49:03;14.50;99.90
23114;DHT22;11726;50.122;8.832;2023-11-19T11:57:11;14.40;99.90
23114;DHT22;11726;50.122;8.832;2023-11-19T12:02:08;14.30;99.90
23114;DHT22;11726;50.122;8.832;2023-11-19T12:04:36;14.30;99.90
23114;DHT22;11726;50.122;8.832;2023-11-19T12:09:33;14.20;99.90
23114;DHT22;11726;50.122;8.832;2023-11-19T12:12:23;14.10;99.90
23114;DHT22;11726;50.122;8.832;2023-11-19T12:14:59;14.10;99.90
23114;DHT22;11726;50.122;8.832;2023-11-19T12:20:00;14.10;99.90
23114;DHT22;11726;50.122;8.832;2023-11-19T12:22:27;14.10;99.90
23114;DHT22;11726;50.122;8.832;2023-11-19T12:24:55;14.20;99.90
23114;DHT22;11726;50.122;8.832;2023-11-19T12:27:22;14.10;99.90
23114;DHT22;11726;50.122;8.832;2023-11-19T12:29:49;14.00;99.90
23114;DHT22;11726;50.122;8.832;2023-11-19T12:32:16;13.90;99.90
23114;DHT22;11726;50.122;8.832;2023-11-19T12:34:43;13.90;99.90
23114;DHT22;11726;50.122;8.832;2023-11-19T12:37:11;13.90;99.90
23114;DHT22;11726;50.122;8.832;2023-11-19T12:39:38;13.90;99.90
23114;DHT22;11726;50.122;8.832;2023-11-19T12:42:04;13.90;99.90
23114;DHT22;11726;50.122;8.832;2023-11-19T12:44:31;13.90;99.90
23114;DHT22;11726;50.122;8.832;2023-11-19T12:47:07;14.00;99.90
23114;DHT22;11726;50.122;8.832;2023-11-19T12:49:34;14.00;99.90
23114;DHT22;11726;50.122;8.832;2023-11-19T12:52:01;13.90;99.90
23114;DHT22;11726;50.122;8.832;2023-11-19T12:54:37;14.10;99.90
23114;DHT22;11726;50.122;8.832;2023-11-19T12:57:04;14.20;99.90
23114;DHT22;11726;50.122;8.832;2023-11-19T12:59:31;14.30;99.90
23114;DHT22;11726;50.122;8.832;2023-11-19T13:01:58;14.20;99.90
23114;DHT22;11726;50.122;8.832;2023-11-19T13:04:29;14.20;99.90
23114;DHT22;11726;50.122;8.832;2023-11-19T13:06:59;14.40;99.90
23114;DHT22;11726;50.122;8.832;2023-11-19T13:09:29;14.40;99.90
23114;DHT22;11726;50.122;8.832;2023-11-19T13:11:56;14.50;99.90
23114;DHT22;11726;50.122;8.832;2023-11-19T13:14:23;14.50;99.90
23114;DHT22;11726;50.122;8.832;2023-11-19T13:16:50;14.50;99.90
23114;DHT22;11726;50.122;8.832;2023-11-19T13:19:17;14.60;99.90
23114;DHT22;11726;50.122;8.832;2023-11-19T13:21:45;14.60;99.90
23114;DHT22;11726;50.122;8.832;2023-11-19T13:24:15;14.50;99.90
23114;DHT22;11726;50.122;8.832;2023-11-19T13:26:42;14.50;99.90
23114;DHT22;11726;50.122;8.832;2023-11-19T13:29:08;14.40;99.90
23114;DHT22;11726;50.122;8.832;2023-11-19T13:31:37;14.50;99.90
23114;DHT22;11726;50.122;8.832;2023-11-19T13:34:04;14.50;99.90
23114;DHT22;11726;50.122;8.832;2023-11-19T13:36:33;14.40;99.90
23114;DHT22;11726;50.122;8.832;2023-11-19T13:39:01;14.40;99.90
23114;DHT22;11726;50.122;8.832;2023-11-19T13:41:27;14.40;99.90
23114;DHT22;11726;50.122;8.832;2023-11-19T13:43:54;14.50;99.90
23114;DHT22;11726;50.122;8.832;2023-11-19T13:46:21;14.40;99.90
23114;DHT22;11726;50.122;8.832;2023-11-19T13:48:48;14.50;99.90
23114;DHT22;11726;50.122;8.832;2023-11-19T13:51:16;14.50;99.90
23114;DHT22;11726;50.122;8.832;2023-11-19T13:53:43;14.80;99.90
23114;DHT22;11726;50.122;8.832;2023-11-19T13:56:13;15.20;99.90
23114;DHT22;11726;50.122;8.832;2023-11-19T13:58:39;15.70;99.90
23114;DHT22;11726;50.122;8.832;2023-11-19T14:01:07;16.10;99.90
23114;DHT22;11726;50.122;8.832;2023-11-19T14:03:34;16.70;99.90
23114;DHT22;11726;50.122;8.832;2023-11-19T14:06:01;16.70;99.90
23114;DHT22;11726;50.122;8.832;2023-11-19T14:08:28;16.50;99.90
23114;DHT22;11726;50.122;8.832;2023-11-19T14:10:54;17.00;99.90
23114;DHT22;11726;50.122;8.832;2023-11-19T14:13:23;16.70;99.90
23114;DHT22;11726;50.122;8.832;2023-11-19T14:15:50;16.00;99.90
23114;DHT22;11726;50.122;8.832;2023-11-19T14:18:17;15.60;99.90
23114;DHT22;11726;50.122;8.832;2023-11-19T14:20:45;15.50;99.90
23114;DHT22;11726;50.122;8.832;2023-11-19T14:23:12;16.00;99.90
23114;DHT22;11726;50.122;8.832;2023-11-19T14:25:39;16.10;99.90
23114;DHT22;11726;50.122;8.832;2023-11-19T14:28:05;16.10;99.90
23114;DHT22;11726;50.122;8.832;2023-11-19T14:30:33;15.90;99.90
23114;DHT22;11726;50.122;8.832;2023-11-19T14:33:01;15.80;99.90
23114;DHT22;11726;50.122;8.832;2023-11-19T14:35:29;15.70;99.90
23114;DHT22;11726;50.122;8.832;2023-11-19T14:37:57;15.60;99.90
23114;DHT22;11726;50.122;8.832;2023-11-19T14:40:23;15.50;99.90
23114;DHT22;11726;50.122;8.832;2023-11-19T14:43:08;15.30;99.90
23114;DHT22;11726;50.122;8.832;2023-11-19T14:45:37;15.10;99.90
23114;DHT22;11726;50.122;8.832;2023-11-19T14:48:15;15.10;99.90
23114;DHT22;11726;50.122;8.832;2023-11-19T14:50:41;14.90;99.90
23114;DHT22;11726;50.122;8.832;2023-11-19T14:53:08;14.70;99.90
23114;DHT22;11726;50.122;8.832;2023-11-19T14:55:34;14.70;99.90
23114;DHT22;11726;50.122;8.832;2023-11-19T14:58:01;14.60;99.90
23114;DHT22;11726;50.122;8.832;2023-11-19T15:00:35;14.50;99.90
23114;DHT22;11726;50.122;8.832;2023-11-19T15:03:02;14.50;99.90
23114;DHT22;11726;50.122;8.832;2023-11-19T15:05:29;14.40;99.90
23114;DHT22;11726;50.122;8.832;2023-11-19T15:07:56;14.40;99.90
23114;DHT22;11726;50.122;8.832;2023-11-19T15:10:23;14.40;99.90
23114;DHT22;11726;50.122;8.832;2023-11-19T15:12:51;14.30;99.90
23114;DHT22;11726;50.122;8.832;2023-11-19T15:15:20;14.20;99.90
23114;DHT22;11726;50.122;8.832;2023-11-19T15:17:49;14.10;99.90
23114;DHT22;11726;50.122;8.832;2023-11-19T15:20:16;14.10;99.90
23114;DHT22;11726;50.122;8.832;2023-11-19T15:22:45;13.90;99.90
23114;DHT22;11726;50.122;8.832;2023-11-19T15:25:12;13.90;99.90
23114;DHT22;11726;50.122;8.832;2023-11-19T15:27:38;13.90;99.90
23114;DHT22;11726;50.122;8.832;2023-11-19T15:30:05;13.90;99.90
23114;DHT22;11726;50.122;8.832;2023-11-19T15:32:32;14.10;99.90
23114;DHT22;11726;50.122;8.832;2023-11-19T15:35:00;14.00;99.90
23114;DHT22;11726;50.122;8.832;2023-11-19T15:37:26;13.90;99.90
23114;DHT22;11726;50.122;8.832;2023-11-19T15:39:53;13.90;99.90
23114;DHT22;11726;50.122;8.832;2023-11-19T15:42:21;13.90;99.90
23114;DHT22;11726;50.122;8.832;2023-11-19T15:44:48;13.70;99.90
23114;DHT22;11726;50.122;8.832;2023-11-19T15:47:16;13.80;99.90
23114;DHT22;11726;50.122;8.832;2023-11-19T15:49:42;13.70;99.90
23114;DHT22;11726;50.122;8.832;2023-11-19T15:52:09;13.70;99.90
23114;DHT22;11726;50.122;8.832;2023-11-19T15:54:36;13.70;99.90
23114;DHT22;11726;50.122;8.832;2023-11-19T15:57:03;13.60;99.90
23114;DHT22;11726;50.122;8.832;2023-11-19T15:59:30;13.60;99.90
23114;DHT22;11726;50.122;8.832;2023-11-19T16:01:58;13.50;99.90
23114;DHT22;11726;50.122;8.832;2023-11-19T16:04:24;13.30;99.90
23114;DHT22;11726;50.122;8.832;2023-11-19T16:06:51;13.40;99.90